createdAt,value
2023-11-18T00:01:46.950Z,24.83
2023-11-18T00:04:32.565Z,25.08
2023-11-18T00:07:18.416Z,26.08
2023-11-18T00:10:05.395Z,26.05
2023-11-18T00:12:51.072Z,25.50
2023-11-18T00:15:37.125Z,27.15
2023-11-18T00:18:24.557Z,25.85
2023-11-18T00:21:10.278Z,26.15
2023-11-18T00:23:57.083Z,25.75
2023-11-18T00:26:42.518Z,24.92
2023-11-18T00:29:28.444Z,26.05
2023-11-18T00:32:14.417Z,25.30
2023-11-18T00:35:02.049Z,25.42
2023-11-18T00:37:49.109Z,24.85
2023-11-18T00:40:36.350Z,25.63
2023-11-18T00:43:23.803Z,26.30
2023-11-18T00:46:09.379Z,25.73
2023-11-18T00:48:59.116Z,26.00
2023-11-18T00:51:46.410Z,26.45
2023-11-18T00:54:31.961Z,25.45
2023-11-18T00:57:18.177Z,26.38
2023-11-18T01:00:04.303Z,26.98
2023-11-18T01:02:51.033Z,26.15
2023-11-18T01:05:36.785Z,25.27
2023-11-18T01:08:24.214Z,26.55
2023-11-18T01:11:10.288Z,26.23
2023-11-18T01:13:57.089Z,25.90
2023-11-18T01:16:42.873Z,27.17
2023-11-18T01:19:29.543Z,25.38
2023-11-18T01:22:15.651Z,26.48
2023-11-18T01:25:02.463Z,26.20
2023-11-18T01:27:48.305Z,27.30
2023-11-18T01:30:33.877Z,26.75
2023-11-18T01:33:19.643Z,26.17
2023-11-18T01:36:06.797Z,27.23
2023-11-18T01:38:52.648Z,26.98
2023-11-18T01:41:40.099Z,28.02
2023-11-18T01:44:25.676Z,28.08
2023-11-18T01:47:15.099Z,29.27
2023-11-18T01:50:02.473Z,28.50
2023-11-18T01:52:49.593Z,29.38
2023-11-18T01:55:35.768Z,29.88
2023-11-18T01:58:24.199Z,29.73
2023-11-18T02:01:11.252Z,30.25
2023-11-18T02:03:57.234Z,29.10
2023-11-18T02:06:43.770Z,28.67
2023-11-18T02:09:30.310Z,29.80
2023-11-18T02:12:26.686Z,27.83
2023-11-18T02:15:15.512Z,28.20
2023-11-18T02:18:04.925Z,27.17
2023-11-18T02:20:51.571Z,27.48
2023-11-18T02:23:38.503Z,29.30
2023-11-18T02:26:26.895Z,28.38
2023-11-18T02:29:12.900Z,29.45
2023-11-18T02:32:03.427Z,28.33
2023-11-18T02:34:56.623Z,29.55
2023-11-18T02:37:48.416Z,27.42
2023-11-18T02:40:36.961Z,27.13
2023-11-18T02:43:25.298Z,27.60
2023-11-18T02:46:16.530Z,26.38
2023-11-18T02:49:03.569Z,27.88
2023-11-18T02:51:49.256Z,27.52
2023-11-18T02:54:34.962Z,27.08
2023-11-18T02:57:20.570Z,28.30
2023-11-18T03:00:24.548Z,28.25
2023-11-18T03:03:10.594Z,28.30
2023-11-18T03:05:56.702Z,28.42
2023-11-18T03:08:42.682Z,28.05
2023-11-18T03:11:31.011Z,28.30
2023-11-18T03:14:16.897Z,29.42
2023-11-18T03:17:07.421Z,28.15
2023-11-18T03:19:53.343Z,28.15
2023-11-18T03:22:39.318Z,28.00
2023-11-18T03:25:25.071Z,28.40
2023-11-18T03:28:10.448Z,29.05
2023-11-18T03:30:56.387Z,30.17
2023-11-18T03:33:43.661Z,29.50
2023-11-18T03:36:29.188Z,27.92
2023-11-18T03:39:15.405Z,29.05
2023-11-18T03:42:01.059Z,27.42
2023-11-18T03:44:48.742Z,28.38
2023-11-18T03:47:35.226Z,30.20
2023-11-18T03:50:22.319Z,29.15
2023-11-18T03:53:07.930Z,30.88
2023-11-18T03:55:53.936Z,30.73
2023-11-18T03:58:41.896Z,30.45
2023-11-18T04:01:28.625Z,30.55
2023-11-18T04:04:14.328Z,30.98
2023-11-18T04:07:04.314Z,33.22
2023-11-18T04:09:50.926Z,32.80
2023-11-18T04:12:38.748Z,34.45
2023-11-18T04:15:25.355Z,34.22
2023-11-18T04:18:11.308Z,34.90
2023-11-18T04:20:59.101Z,34.17
2023-11-18T04:23:47.828Z,32.38
2023-11-18T04:26:33.784Z,30.73
2023-11-18T04:29:19.733Z,29.67
2023-11-18T04:32:06.076Z,30.73
2023-11-18T04:34:52.580Z,31.17
2023-11-18T04:37:38.474Z,31.45
2023-11-18T04:40:25.808Z,29.88
2023-11-18T04:43:11.972Z,31.73
2023-11-18T04:45:57.392Z,33.30
2023-11-18T04:48:44.090Z,30.92
2023-11-18T04:51:31.396Z,30.45
2023-11-18T04:54:17.052Z,31.55
2023-11-18T04:57:04.840Z,32.35
2023-11-18T04:59:50.748Z,28.42
2023-11-18T05:02:36.413Z,30.08
2023-11-18T05:05:23.378Z,28.85
2023-11-18T05:08:19.764Z,29.92
2023-11-18T05:11:06.135Z,27.30
2023-11-18T05:13:54.571Z,28.55
2023-11-18T05:16:40.494Z,26.98
2023-11-18T05:19:26.880Z,28.27
2023-11-18T05:22:12.415Z,26.52
2023-11-18T05:24:58.709Z,25.88
2023-11-18T05:27:45.227Z,26.08
2023-11-18T05:30:32.405Z,26.80
2023-11-18T05:33:19.025Z,26.50
2023-11-18T05:36:08.459Z,24.58
2023-11-18T05:38:55.022Z,26.27
2023-11-18T05:41:42.214Z,25.85
2023-11-18T05:44:31.888Z,22.52
2023-11-18T05:47:18.937Z,25.42
2023-11-18T05:50:06.751Z,25.98
2023-11-18T05:52:53.637Z,24.00
2023-11-18T05:55:39.672Z,24.85
2023-11-18T05:58:25.663Z,24.55
2023-11-18T06:01:12.407Z,24.25
2023-11-18T06:04:00.361Z,24.15
2023-11-18T06:06:45.946Z,24.63
2023-11-18T06:09:31.387Z,23.63
2023-11-18T06:12:18.849Z,24.17
2023-11-18T06:15:05.345Z,22.92
2023-11-18T06:17:51.027Z,23.60
2023-11-18T06:20:39.603Z,24.25
2023-11-18T06:23:27.116Z,24.98
2023-11-18T06:26:13.117Z,24.63
2023-11-18T06:29:00.646Z,23.75
2023-11-18T06:31:46.554Z,24.60
2023-11-18T06:34:32.157Z,25.17
2023-11-18T06:37:19.073Z,25.67
2023-11-18T06:40:17.226Z,24.15
2023-11-18T06:43:04.113Z,25.20
2023-11-18T06:45:49.827Z,22.98
2023-11-18T06:48:36.215Z,22.45
2023-11-18T06:51:25.416Z,23.70
2023-11-18T06:54:14.774Z,22.08
2023-11-18T06:57:00.669Z,22.00
2023-11-18T06:59:46.434Z,20.83
2023-11-18T07:02:31.874Z,21.02
2023-11-18T07:05:18.521Z,22.15
2023-11-18T07:08:05.061Z,22.15
2023-11-18T07:10:52.451Z,21.10
2023-11-18T07:13:38.521Z,21.30
2023-11-18T07:16:25.175Z,19.48
2023-11-18T07:19:16.159Z,21.70
2023-11-18T07:22:03.636Z,19.67
2023-11-18T07:24:49.374Z,19.58
2023-11-18T07:27:37.158Z,19.65
2023-11-18T07:30:24.512Z,19.33
2023-11-18T07:33:10.390Z,19.75
2023-11-18T07:35:56.610Z,17.83
2023-11-18T07:38:42.564Z,18.45
2023-11-18T07:41:30.785Z,18.42
2023-11-18T07:44:19.844Z,18.50
2023-11-18T07:47:06.533Z,17.25
2023-11-18T07:49:52.497Z,17.45
2023-11-18T07:52:38.474Z,17.75
2023-11-18T07:55:24.653Z,17.40
2023-11-18T07:58:13.712Z,16.42
2023-11-18T08:01:01.380Z,17.63
2023-11-18T08:03:48.827Z,15.55
2023-11-18T08:06:34.779Z,15.13
2023-11-18T08:09:24.580Z,16.27
2023-11-18T08:12:10.403Z,16.40
2023-11-18T08:14:56.336Z,15.75
2023-11-18T08:17:43.328Z,15.65
2023-11-18T08:20:29.406Z,14.55
2023-11-18T08:23:15.022Z,14.45
2023-11-18T08:26:00.869Z,15.80
2023-11-18T08:28:46.875Z,15.70
2023-11-18T08:31:33.979Z,14.63
2023-11-18T08:34:21.006Z,15.18
2023-11-18T08:37:06.556Z,14.32
2023-11-18T08:39:52.526Z,15.30
2023-11-18T08:42:38.826Z,14.45
2023-11-18T08:45:29.375Z,15.48
2023-11-18T08:48:16.658Z,14.63
2023-11-18T08:51:04.199Z,14.00
2023-11-18T08:53:52.003Z,13.48
2023-11-18T08:56:43.227Z,13.13
2023-11-18T08:59:29.008Z,13.40
2023-11-18T09:02:16.304Z,12.10
2023-11-18T09:05:07.916Z,11.90
2023-11-18T09:07:58.884Z,11.20
2023-11-18T09:10:44.843Z,11.98
2023-11-18T09:13:31.209Z,12.05
2023-11-18T09:16:17.238Z,11.20
2023-11-18T09:19:04.055Z,10.60
2023-11-18T09:21:50.253Z,10.73
2023-11-18T09:24:37.759Z,9.98
2023-11-18T09:27:24.061Z,10.90
2023-11-18T09:30:14.961Z,11.13
2023-11-18T09:33:03.930Z,10.07
2023-11-18T09:35:50.069Z,11.23
2023-11-18T09:38:36.977Z,10.48
2023-11-18T09:41:28.969Z,10.05
2023-11-18T09:44:16.411Z,9.65
2023-11-18T09:47:10.587Z,9.38
2023-11-18T09:50:00.794Z,9.23
2023-11-18T09:52:53.131Z,8.93
2023-11-18T09:55:46.038Z,9.02
2023-11-18T09:58:42.340Z,8.98
2023-11-18T10:01:29.390Z,8.18
2023-11-18T10:04:19.548Z,9.25
2023-11-18T10:07:05.838Z,9.55
2023-11-18T10:09:56.759Z,9.35
2023-11-18T10:12:44.557Z,9.50
2023-11-18T10:15:32.783Z,9.02
2023-11-18T10:18:24.130Z,9.50
2023-11-18T10:21:12.775Z,9.07
2023-11-18T10:24:02.359Z,9.00
2023-11-18T10:26:57.482Z,8.18
2023-11-18T10:29:43.491Z,9.05
2023-11-18T10:32:31.190Z,8.90
2023-11-18T10:35:19.667Z,9.00
2023-11-18T10:38:08.654Z,8.68
2023-11-18T10:40:59.112Z,10.20
2023-11-18T10:43:45.837Z,9.20
2023-11-18T10:46:33.335Z,9.18
2023-11-18T10:49:21.772Z,8.70
2023-11-18T10:52:09.878Z,8.93
2023-11-18T10:54:57.085Z,9.18
2023-11-18T10:57:44.192Z,9.43
2023-11-18T11:00:34.781Z,10.60
2023-11-18T11:03:20.794Z,9.27
2023-11-18T11:06:20.483Z,9.60
2023-11-18T11:09:15.472Z,8.57
2023-11-18T11:12:06.223Z,9.10
2023-11-18T11:14:59.185Z,9.70
2023-11-18T11:17:56.261Z,8.50
2023-11-18T11:20:50.156Z,8.77
2023-11-18T11:23:50.860Z,8.50
2023-11-18T11:26:46.262Z,7.95
2023-11-18T11:29:40.959Z,8.13
2023-11-18T11:32:39.438Z,8.35
2023-11-18T11:35:32.164Z,7.95
2023-11-18T11:38:19.526Z,7.55
2023-11-18T11:41:09.664Z,8.55
2023-11-18T11:43:58.967Z,7.32
2023-11-18T11:46:45.255Z,8.63
2023-11-18T11:49:38.135Z,8.20
2023-11-18T11:52:30.786Z,7.10
2023-11-18T11:55:24.945Z,7.78
2023-11-18T11:58:34.345Z,6.88
2023-11-18T12:01:31.117Z,7.05
2023-11-18T12:04:23.026Z,6.38
2023-11-18T12:07:18.466Z,5.90
2023-11-18T12:10:14.805Z,5.72
2023-11-18T12:13:17.444Z,6.22
2023-11-18T12:16:05.913Z,5.30
2023-11-18T12:19:43.276Z,6.03
2023-11-18T12:22:49.390Z,6.32
2023-11-18T12:25:37.641Z,5.72
2023-11-18T12:28:35.466Z,5.90
2023-11-18T12:31:42.055Z,6.00
2023-11-18T12:34:53.024Z,5.18
2023-11-18T12:38:08.268Z,5.38
2023-11-18T12:41:00.951Z,5.03
2023-11-18T12:43:55.080Z,6.30
2023-11-18T12:46:51.723Z,6.07
2023-11-18T12:49:42.268Z,6.30
2023-11-18T12:52:29.176Z,5.80
2023-11-18T12:55:20.258Z,5.18
2023-11-18T12:58:06.788Z,5.57
2023-11-18T13:00:52.479Z,5.85
2023-11-18T13:03:39.614Z,6.00
2023-11-18T13:06:29.677Z,5.70
2023-11-18T13:09:26.009Z,5.57
2023-11-18T13:12:15.849Z,5.93
2023-11-18T13:15:01.937Z,6.97
2023-11-18T13:17:59.308Z,4.95
2023-11-18T13:20:58.508Z,5.25
2023-11-18T13:23:47.323Z,5.07
2023-11-18T13:26:34.471Z,6.80
2023-11-18T13:29:22.708Z,6.63
2023-11-18T13:32:11.206Z,5.38
2023-11-18T13:34:56.969Z,4.82
2023-11-18T13:37:46.709Z,5.18
2023-11-18T13:40:43.993Z,5.25
2023-11-18T13:43:29.534Z,4.82
2023-11-18T13:46:15.804Z,4.60
2023-11-18T13:49:01.474Z,4.70
2023-11-18T13:51:47.798Z,4.65
2023-11-18T13:54:35.835Z,4.18
2023-11-18T13:57:23.145Z,4.20
2023-11-18T14:00:16.766Z,4.07
2023-11-18T14:03:02.813Z,3.72
2023-11-18T14:05:48.888Z,4.45
2023-11-18T14:08:37.360Z,3.50
2023-11-18T14:11:25.431Z,2.90
2023-11-18T14:14:11.670Z,3.00
2023-11-18T14:16:59.155Z,2.92
2023-11-18T14:19:45.085Z,3.40
2023-11-18T14:22:30.925Z,3.72
2023-11-18T14:25:18.440Z,2.85
2023-11-18T14:28:05.877Z,2.95
2023-11-18T14:30:51.803Z,2.55
2023-11-18T14:33:38.187Z,2.80
2023-11-18T14:36:25.156Z,2.58
2023-11-18T14:39:11.390Z,2.63
2023-11-18T14:41:57.489Z,2.28
2023-11-18T14:44:44.392Z,2.78
2023-11-18T14:47:32.976Z,2.53
2023-11-18T14:50:21.069Z,3.08
2023-11-18T14:53:07.410Z,2.17
2023-11-18T14:55:53.248Z,2.40
2023-11-18T14:58:39.703Z,2.42
2023-11-18T15:01:27.268Z,2.50
2023-11-18T15:04:13.451Z,2.28
2023-11-18T15:06:59.520Z,2.13
2023-11-18T15:09:45.116Z,2.35
2023-11-18T15:12:31.577Z,2.60
2023-11-18T15:15:19.701Z,2.28
2023-11-18T15:18:15.132Z,2.20
2023-11-18T15:21:01.231Z,2.35
2023-11-18T15:23:47.693Z,2.75
2023-11-18T15:26:33.887Z,2.78
2023-11-18T15:29:20.062Z,2.40
2023-11-18T15:32:06.543Z,2.55
2023-11-18T15:34:54.160Z,2.42
2023-11-18T15:37:42.593Z,2.35
2023-11-18T15:40:29.457Z,2.35
2023-11-18T15:43:15.111Z,2.70
2023-11-18T15:46:00.766Z,2.30
2023-11-18T15:48:46.323Z,2.60
2023-11-18T15:51:33.318Z,2.05
2023-11-18T15:54:20.109Z,2.55
2023-11-18T15:57:06.057Z,2.40
2023-11-18T15:59:51.848Z,2.28
2023-11-18T16:02:37.881Z,2.22
2023-11-18T16:05:24.909Z,2.83
2023-11-18T16:08:12.430Z,2.63
2023-11-18T16:10:58.191Z,2.22
2023-11-18T16:13:43.868Z,3.08
2023-11-18T16:16:29.676Z,2.80
2023-11-18T16:19:17.290Z,2.65
2023-11-18T16:22:02.669Z,2.47
2023-11-18T16:24:49.856Z,3.85
2023-11-18T16:27:35.669Z,2.95
2023-11-18T16:30:26.009Z,2.50
2023-11-18T16:33:12.674Z,2.80
2023-11-18T16:35:59.965Z,2.20
2023-11-18T16:38:47.578Z,2.40
2023-11-18T16:41:43.320Z,1.77
2023-11-18T16:44:31.770Z,1.33
2023-11-18T16:47:17.687Z,0.95
2023-11-18T16:50:04.668Z,1.05
2023-11-18T16:52:51.451Z,1.48
2023-11-18T16:55:37.192Z,1.38
2023-11-18T16:58:24.545Z,1.30
2023-11-18T17:01:10.421Z,1.65
2023-11-18T17:03:56.242Z,1.80
2023-11-18T17:06:42.864Z,1.63
2023-11-18T17:09:28.813Z,1.50
2023-11-18T17:12:14.602Z,1.50
2023-11-18T17:15:01.617Z,1.58
2023-11-18T17:17:48.938Z,1.55
2023-11-18T17:20:35.146Z,1.67
2023-11-18T17:23:20.905Z,1.83
2023-11-18T17:26:08.730Z,1.95
2023-11-18T17:28:54.890Z,2.28
2023-11-18T17:31:42.627Z,2.20
2023-11-18T17:34:29.383Z,2.50
2023-11-18T17:37:15.346Z,2.30
2023-11-18T17:40:00.889Z,2.25
2023-11-18T17:42:46.482Z,2.28
2023-11-18T17:45:32.314Z,2.55
2023-11-18T17:48:19.492Z,2.53
2023-11-18T17:51:05.695Z,2.88
2023-11-18T17:53:51.529Z,2.78
2023-11-18T17:56:36.995Z,2.20
2023-11-18T17:59:23.079Z,2.75
2023-11-18T18:02:09.605Z,2.50
2023-11-18T18:04:56.811Z,2.97
2023-11-18T18:07:43.537Z,2.65
2023-11-18T18:10:29.896Z,2.90
2023-11-18T18:13:16.552Z,2.83
2023-11-18T18:16:02.493Z,4.28
2023-11-18T18:18:48.366Z,3.42
2023-11-18T18:21:35.639Z,3.63
2023-11-18T18:24:21.616Z,3.97
2023-11-18T18:27:07.436Z,3.95
2023-11-18T18:29:53.568Z,3.80
2023-11-18T18:32:39.865Z,4.10
2023-11-18T18:35:26.938Z,4.78
2023-11-18T18:38:14.817Z,4.25
2023-11-18T18:41:01.746Z,4.35
2023-11-18T18:43:47.811Z,4.88
2023-11-18T18:46:33.879Z,4.80
2023-11-18T18:49:20.151Z,5.03
2023-11-18T18:52:06.276Z,4.88
2023-11-18T18:54:54.558Z,4.10
2023-11-18T18:57:40.486Z,5.45
2023-11-18T19:00:26.037Z,4.97
2023-11-18T19:03:12.966Z,4.97
2023-11-18T19:05:58.911Z,6.47
2023-11-18T19:08:44.735Z,5.07
2023-11-18T19:11:32.503Z,6.07
2023-11-18T19:14:18.815Z,5.65
2023-11-18T19:17:06.230Z,5.78
2023-11-18T19:19:52.171Z,5.95
2023-11-18T19:22:38.296Z,5.78
2023-11-18T19:25:24.486Z,5.60
2023-11-18T19:28:12.410Z,6.32
2023-11-18T19:30:58.058Z,5.57
2023-11-18T19:33:44.606Z,6.07
2023-11-18T19:36:30.841Z,6.50
2023-11-18T19:39:16.458Z,5.88
2023-11-18T19:42:19.582Z,7.00
2023-11-18T19:45:09.420Z,6.43
2023-11-18T19:47:55.574Z,6.38
2023-11-18T19:50:41.401Z,6.47
2023-11-18T19:53:27.744Z,6.18
2023-11-18T19:56:15.554Z,6.40
2023-11-18T19:59:01.465Z,6.72
2023-11-18T20:01:55.750Z,6.88
2023-11-18T20:04:43.055Z,6.65
2023-11-18T20:07:31.393Z,7.18
2023-11-18T20:10:17.424Z,7.25
2023-11-18T20:13:03.527Z,7.80
2023-11-18T20:15:50.430Z,7.20
2023-11-18T20:18:38.481Z,7.35
2023-11-18T20:21:24.881Z,8.15
2023-11-18T20:24:12.871Z,8.13
2023-11-18T20:26:59.092Z,8.07
2023-11-18T20:29:45.386Z,7.82
2023-11-18T20:32:32.182Z,7.65
2023-11-18T20:35:20.334Z,8.15
2023-11-18T20:38:06.811Z,7.05
2023-11-18T20:40:53.000Z,7.22
2023-11-18T20:43:38.528Z,9.13
2023-11-18T20:46:26.193Z,8.27
2023-11-18T20:49:12.743Z,8.32
2023-11-18T20:51:59.589Z,8.25
2023-11-18T20:54:45.362Z,8.15
2023-11-18T20:57:31.280Z,8.55
2023-11-18T21:00:21.168Z,8.52
2023-11-18T21:03:07.501Z,8.52
2023-11-18T21:05:54.922Z,9.10
2023-11-18T21:08:42.978Z,8.90
2023-11-18T21:11:29.072Z,9.73
2023-11-18T21:14:15.226Z,8.98
2023-11-18T21:17:08.508Z,9.90
2023-11-18T21:19:54.708Z,10.38
2023-11-18T21:22:41.878Z,8.50
2023-11-18T21:25:28.991Z,10.10
2023-11-18T21:28:14.776Z,8.52
2023-11-18T21:31:00.653Z,9.75
2023-11-18T21:33:46.499Z,9.85
2023-11-18T21:36:32.182Z,9.13
2023-11-18T21:39:19.269Z,9.02
2023-11-18T21:42:08.677Z,9.05
2023-11-18T21:44:55.522Z,10.55
2023-11-18T21:47:46.191Z,9.13
2023-11-18T21:50:34.485Z,10.65
2023-11-18T21:53:24.334Z,10.27
2023-11-18T21:56:11.047Z,10.90
2023-11-18T21:58:58.478Z,10.43
2023-11-18T22:01:47.199Z,10.27
2023-11-18T22:04:33.019Z,10.73
2023-11-18T22:07:19.215Z,10.23
2023-11-18T22:10:05.503Z,10.50
2023-11-18T22:12:53.821Z,11.45
2023-11-18T22:15:41.016Z,10.88
2023-11-18T22:18:27.654Z,10.73
2023-11-18T22:21:13.187Z,11.80
2023-11-18T22:23:58.777Z,11.50
2023-11-18T22:26:44.503Z,11.40
2023-11-18T22:29:30.560Z,11.02
2023-11-18T22:32:18.268Z,11.88
2023-11-18T22:35:05.026Z,10.80
2023-11-18T22:37:51.262Z,11.88
2023-11-18T22:40:39.757Z,10.88
2023-11-18T22:43:25.534Z,11.23
2023-11-18T22:46:12.038Z,11.43
2023-11-18T22:48:59.090Z,9.57
2023-11-18T22:51:44.613Z,9.70
2023-11-18T22:54:30.330Z,9.07
2023-11-18T22:57:15.782Z,8.10
2023-11-18T23:00:01.760Z,8.27
2023-11-18T23:02:47.756Z,8.80
2023-11-18T23:05:40.424Z,7.50
2023-11-18T23:08:26.233Z,7.40
2023-11-18T23:11:13.221Z,6.75
2023-11-18T23:14:01.384Z,7.68
2023-11-18T23:16:47.207Z,6.07
2023-11-18T23:19:38.414Z,6.30
2023-11-18T23:22:33.519Z,6.43
2023-11-18T23:25:20.320Z,6.28
2023-11-18T23:28:08.952Z,5.80
2023-11-18T23:30:58.345Z,6.55
2023-11-18T23:33:43.910Z,5.78
2023-11-18T23:36:29.651Z,5.85
2023-11-18T23:39:17.592Z,5.72
2023-11-18T23:42:03.760Z,5.80
2023-11-18T23:44:49.496Z,5.78
2023-11-18T23:47:35.423Z,5.78
2023-11-18T23:50:24.923Z,5.35
2023-11-18T23:53:10.483Z,5.93
2023-11-18T23:55:57.396Z,5.47
2023-11-18T23:58:42.924Z,5.90
